sensor_id;sensor_type;location;lat;lon;timestamp;P1;durP1;ratioP1;P2;durP2;ratioP2
16640;SDS011;8434;47.990;7.880;2022-10-31T00:00:03;5.17;;;2.20;;
16640;SDS011;8434;47.990;7.880;2022-10-31T00:02:50;5.47;;;2.13;;
16640;SDS011;8434;47.990;7.880;2022-10-31T00:05:35;5.33;;;2.37;;
16640;SDS011;8434;47.990;7.880;2022-10-31T00:08:20;8.50;;;2.80;;
16640;SDS011;8434;47.990;7.880;2022-10-31T00:11:07;4.53;;;2.33;;
16640;SDS011;8434;47.990;7.880;2022-10-31T00:13:53;9.40;;;3.23;;
16640;SDS011;8434;47.990;7.880;2022-10-31T00:16:38;4.77;;;2.30;;
16640;SDS011;8434;47.990;7.880;2022-10-31T00:19:25;7.43;;;2.90;;
16640;SDS011;8434;47.990;7.880;2022-10-31T00:22:10;6.70;;;2.20;;
16640;SDS011;8434;47.990;7.880;2022-10-31T00:24:55;4.87;;;2.20;;
16640;SDS011;8434;47.990;7.880;2022-10-31T00:27:40;5.90;;;2.20;;
16640;SDS011;8434;47.990;7.880;2022-10-31T00:30:26;4.90;;;2.33;;
16640;SDS011;8434;47.990;7.880;2022-10-31T00:33:10;5.07;;;2.30;;
16640;SDS011;8434;47.990;7.880;2022-10-31T00:35:57;4.37;;;2.97;;
16640;SDS011;8434;47.990;7.880;2022-10-31T00:38:42;4.97;;;2.17;;
16640;SDS011;8434;47.990;7.880;2022-10-31T00:41:28;5.07;;;2.30;;
16640;SDS011;8434;47.990;7.880;2022-10-31T00:44:13;5.93;;;2.53;;
16640;SDS011;8434;47.990;7.880;2022-10-31T00:46:58;5.37;;;2.30;;
16640;SDS011;8434;47.990;7.880;2022-10-31T00:49:42;4.30;;;1.93;;
16640;SDS011;8434;47.990;7.880;2022-10-31T00:52:28;5.40;;;2.37;;
16640;SDS011;8434;47.990;7.880;2022-10-31T00:55:13;7.20;;;2.57;;
16640;SDS011;8434;47.990;7.880;2022-10-31T00:57:58;5.67;;;2.20;;
16640;SDS011;8434;47.990;7.880;2022-10-31T01:00:43;4.50;;;1.87;;
16640;SDS011;8434;47.990;7.880;2022-10-31T01:03:29;4.57;;;2.20;;
16640;SDS011;8434;47.990;7.880;2022-10-31T01:06:14;4.53;;;2.50;;
16640;SDS011;8434;47.990;7.880;2022-10-31T01:09:01;7.13;;;2.33;;
16640;SDS011;8434;47.990;7.880;2022-10-31T01:11:46;6.40;;;2.50;;
16640;SDS011;8434;47.990;7.880;2022-10-31T01:14:31;7.37;;;2.07;;
16640;SDS011;8434;47.990;7.880;2022-10-31T01:17:16;6.10;;;2.80;;
16640;SDS011;8434;47.990;7.880;2022-10-31T01:20:00;5.10;;;2.13;;
16640;SDS011;8434;47.990;7.880;2022-10-31T01:22:45;4.97;;;2.03;;
16640;SDS011;8434;47.990;7.880;2022-10-31T01:25:32;4.30;;;2.00;;
16640;SDS011;8434;47.990;7.880;2022-10-31T01:28:17;6.80;;;2.60;;
16640;SDS011;8434;47.990;7.880;2022-10-31T01:31:03;5.70;;;2.57;;
16640;SDS011;8434;47.990;7.880;2022-10-31T01:33:48;8.23;;;2.00;;
16640;SDS011;8434;47.990;7.880;2022-10-31T01:36:34;4.47;;;2.77;;
16640;SDS011;8434;47.990;7.880;2022-10-31T01:39:19;5.03;;;2.07;;
16640;SDS011;8434;47.990;7.880;2022-10-31T01:42:06;5.83;;;2.37;;
16640;SDS011;8434;47.990;7.880;2022-10-31T01:44:53;9.03;;;2.83;;
16640;SDS011;8434;47.990;7.880;2022-10-31T01:47:40;6.90;;;2.93;;
16640;SDS011;8434;47.990;7.880;2022-10-31T01:50:28;6.43;;;2.40;;
16640;SDS011;8434;47.990;7.880;2022-10-31T01:53:14;3.87;;;2.20;;
16640;SDS011;8434;47.990;7.880;2022-10-31T01:56:00;4.73;;;2.10;;
16640;SDS011;8434;47.990;7.880;2022-10-31T01:58:46;5.33;;;2.67;;
16640;SDS011;8434;47.990;7.880;2022-10-31T02:01:32;7.03;;;2.27;;
16640;SDS011;8434;47.990;7.880;2022-10-31T02:04:17;5.13;;;2.13;;
16640;SDS011;8434;47.990;7.880;2022-10-31T02:07:03;3.93;;;2.30;;
16640;SDS011;8434;47.990;7.880;2022-10-31T02:09:50;6.90;;;3.43;;
16640;SDS011;8434;47.990;7.880;2022-10-31T02:12:36;3.73;;;2.30;;
16640;SDS011;8434;47.990;7.880;2022-10-31T02:15:23;3.97;;;2.20;;
16640;SDS011;8434;47.990;7.880;2022-10-31T02:18:09;5.07;;;2.77;;
16640;SDS011;8434;47.990;7.880;2022-10-31T02:20:58;3.27;;;2.13;;
16640;SDS011;8434;47.990;7.880;2022-10-31T02:23:59;6.80;;;2.10;;
16640;SDS011;8434;47.990;7.880;2022-10-31T02:26:52;4.63;;;2.13;;
16640;SDS011;8434;47.990;7.880;2022-10-31T02:32:59;5.37;;;2.27;;
16640;SDS011;8434;47.990;7.880;2022-10-31T02:35:49;4.30;;;1.90;;
16640;SDS011;8434;47.990;7.880;2022-10-31T02:38:41;4.50;;;2.30;;
16640;SDS011;8434;47.990;7.880;2022-10-31T02:41:30;3.80;;;2.30;;
16640;SDS011;8434;47.990;7.880;2022-10-31T02:44:19;4.87;;;2.60;;
16640;SDS011;8434;47.990;7.880;2022-10-31T02:47:06;4.67;;;2.50;;
16640;SDS011;8434;47.990;7.880;2022-10-31T02:49:55;8.00;;;2.60;;
16640;SDS011;8434;47.990;7.880;2022-10-31T02:52:42;4.50;;;2.37;;
16640;SDS011;8434;47.990;7.880;2022-10-31T02:55:44;6.67;;;2.17;;
16640;SDS011;8434;47.990;7.880;2022-10-31T02:58:32;5.10;;;2.80;;
16640;SDS011;8434;47.990;7.880;2022-10-31T03:01:34;4.87;;;2.43;;
16640;SDS011;8434;47.990;7.880;2022-10-31T03:04:29;6.90;;;2.60;;
16640;SDS011;8434;47.990;7.880;2022-10-31T03:07:23;3.80;;;2.20;;
16640;SDS011;8434;47.990;7.880;2022-10-31T03:10:12;4.60;;;2.20;;
16640;SDS011;8434;47.990;7.880;2022-10-31T03:13:00;4.73;;;2.30;;
16640;SDS011;8434;47.990;7.880;2022-10-31T03:15:48;5.00;;;2.30;;
16640;SDS011;8434;47.990;7.880;2022-10-31T03:18:34;5.47;;;2.57;;
16640;SDS011;8434;47.990;7.880;2022-10-31T03:21:21;5.37;;;2.20;;
16640;SDS011;8434;47.990;7.880;2022-10-31T03:24:08;4.90;;;2.50;;
16640;SDS011;8434;47.990;7.880;2022-10-31T03:26:54;4.23;;;2.33;;
16640;SDS011;8434;47.990;7.880;2022-10-31T03:29:41;4.80;;;2.50;;
16640;SDS011;8434;47.990;7.880;2022-10-31T03:32:27;5.23;;;2.53;;
16640;SDS011;8434;47.990;7.880;2022-10-31T03:35:14;4.17;;;1.97;;
16640;SDS011;8434;47.990;7.880;2022-10-31T03:38:00;3.33;;;2.20;;
16640;SDS011;8434;47.990;7.880;2022-10-31T03:40:47;6.57;;;2.50;;
16640;SDS011;8434;47.990;7.880;2022-10-31T03:43:35;4.33;;;2.20;;
16640;SDS011;8434;47.990;7.880;2022-10-31T03:46:21;5.63;;;2.47;;
16640;SDS011;8434;47.990;7.880;2022-10-31T03:49:06;4.30;;;2.57;;
16640;SDS011;8434;47.990;7.880;2022-10-31T03:51:53;3.93;;;2.27;;
16640;SDS011;8434;47.990;7.880;2022-10-31T03:54:41;5.30;;;2.07;;
16640;SDS011;8434;47.990;7.880;2022-10-31T03:57:29;4.43;;;2.47;;
16640;SDS011;8434;47.990;7.880;2022-10-31T04:00:17;6.83;;;2.57;;
16640;SDS011;8434;47.990;7.880;2022-10-31T04:03:03;3.97;;;2.20;;
16640;SDS011;8434;47.990;7.880;2022-10-31T04:05:49;3.73;;;2.37;;
16640;SDS011;8434;47.990;7.880;2022-10-31T04:08:38;6.30;;;2.40;;
16640;SDS011;8434;47.990;7.880;2022-10-31T04:11:25;4.27;;;2.30;;
16640;SDS011;8434;47.990;7.880;2022-10-31T04:14:13;3.33;;;1.87;;
16640;SDS011;8434;47.990;7.880;2022-10-31T04:16:58;4.13;;;2.43;;
16640;SDS011;8434;47.990;7.880;2022-10-31T04:19:43;4.73;;;2.60;;
16640;SDS011;8434;47.990;7.880;2022-10-31T04:22:29;4.03;;;2.37;;
16640;SDS011;8434;47.990;7.880;2022-10-31T04:25:14;5.87;;;2.40;;
16640;SDS011;8434;47.990;7.880;2022-10-31T04:27:59;9.77;;;2.77;;
16640;SDS011;8434;47.990;7.880;2022-10-31T04:30:45;3.97;;;2.23;;
16640;SDS011;8434;47.990;7.880;2022-10-31T04:33:29;4.93;;;2.33;;
16640;SDS011;8434;47.990;7.880;2022-10-31T04:36:14;6.03;;;2.43;;
16640;SDS011;8434;47.990;7.880;2022-10-31T04:38:59;5.93;;;2.10;;
16640;SDS011;8434;47.990;7.880;2022-10-31T04:41:44;5.60;;;2.17;;
16640;SDS011;8434;47.990;7.880;2022-10-31T04:44:29;5.07;;;2.60;;
16640;SDS011;8434;47.990;7.880;2022-10-31T04:47:16;4.33;;;2.10;;
16640;SDS011;8434;47.990;7.880;2022-10-31T04:50:01;6.23;;;2.53;;
16640;SDS011;8434;47.990;7.880;2022-10-31T04:52:46;6.23;;;2.57;;
16640;SDS011;8434;47.990;7.880;2022-10-31T04:55:31;4.10;;;2.30;;
16640;SDS011;8434;47.990;7.880;2022-10-31T04:58:16;4.30;;;2.20;;
16640;SDS011;8434;47.990;7.880;2022-10-31T05:01:01;6.47;;;2.50;;
16640;SDS011;8434;47.990;7.880;2022-10-31T05:03:47;6.37;;;2.30;;
16640;SDS011;8434;47.990;7.880;2022-10-31T05:06:33;3.80;;;2.10;;
16640;SDS011;8434;47.990;7.880;2022-10-31T05:09:18;7.27;;;3.23;;
16640;SDS011;8434;47.990;7.880;2022-10-31T05:12:03;5.63;;;2.43;;
16640;SDS011;8434;47.990;7.880;2022-10-31T05:14:48;4.77;;;2.47;;
16640;SDS011;8434;47.990;7.880;2022-10-31T05:17:33;4.93;;;2.80;;
16640;SDS011;8434;47.990;7.880;2022-10-31T05:20:20;4.13;;;2.40;;
16640;SDS011;8434;47.990;7.880;2022-10-31T05:23:05;4.93;;;2.13;;
16640;SDS011;8434;47.990;7.880;2022-10-31T05:25:50;6.80;;;3.47;;
16640;SDS011;8434;47.990;7.880;2022-10-31T05:28:35;8.17;;;2.77;;
16640;SDS011;8434;47.990;7.880;2022-10-31T05:31:20;7.17;;;2.83;;
16640;SDS011;8434;47.990;7.880;2022-10-31T05:34:05;4.10;;;2.73;;
16640;SDS011;8434;47.990;7.880;2022-10-31T05:36:51;7.87;;;3.40;;
16640;SDS011;8434;47.990;7.880;2022-10-31T05:39:36;4.43;;;2.47;;
16640;SDS011;8434;47.990;7.880;2022-10-31T05:42:23;4.83;;;2.63;;
16640;SDS011;8434;47.990;7.880;2022-10-31T05:45:08;4.97;;;2.77;;
16640;SDS011;8434;47.990;7.880;2022-10-31T05:47:54;4.97;;;3.83;;
16640;SDS011;8434;47.990;7.880;2022-10-31T05:50:39;4.73;;;3.07;;
16640;SDS011;8434;47.990;7.880;2022-10-31T05:53:25;7.70;;;2.43;;
16640;SDS011;8434;47.990;7.880;2022-10-31T05:56:10;5.57;;;2.63;;
16640;SDS011;8434;47.990;7.880;2022-10-31T05:58:55;3.47;;;2.43;;
16640;SDS011;8434;47.990;7.880;2022-10-31T06:01:41;5.17;;;2.70;;
16640;SDS011;8434;47.990;7.880;2022-10-31T06:04:26;7.10;;;2.30;;
16640;SDS011;8434;47.990;7.880;2022-10-31T06:07:11;7.03;;;2.67;;
16640;SDS011;8434;47.990;7.880;2022-10-31T06:09:58;6.73;;;3.10;;
16640;SDS011;8434;47.990;7.880;2022-10-31T06:12:43;5.13;;;2.70;;
16640;SDS011;8434;47.990;7.880;2022-10-31T06:15:27;5.13;;;2.87;;
16640;SDS011;8434;47.990;7.880;2022-10-31T06:18:12;3.47;;;2.50;;
16640;SDS011;8434;47.990;7.880;2022-10-31T06:20:57;6.83;;;2.87;;
16640;SDS011;8434;47.990;7.880;2022-10-31T06:23:42;5.33;;;2.30;;
16640;SDS011;8434;47.990;7.880;2022-10-31T06:26:28;5.77;;;3.27;;
16640;SDS011;8434;47.990;7.880;2022-10-31T06:29:13;4.70;;;2.83;;
16640;SDS011;8434;47.990;7.880;2022-10-31T06:31:59;7.77;;;2.80;;
16640;SDS011;8434;47.990;7.880;2022-10-31T06:34:44;5.97;;;2.60;;
16640;SDS011;8434;47.990;7.880;2022-10-31T06:37:31;9.03;;;2.67;;
16640;SDS011;8434;47.990;7.880;2022-10-31T06:40:17;6.10;;;2.63;;
16640;SDS011;8434;47.990;7.880;2022-10-31T06:43:04;7.37;;;2.40;;
16640;SDS011;8434;47.990;7.880;2022-10-31T06:45:49;9.97;;;3.30;;
16640;SDS011;8434;47.990;7.880;2022-10-31T06:48:34;4.80;;;2.83;;
16640;SDS011;8434;47.990;7.880;2022-10-31T06:51:19;4.63;;;2.73;;
16640;SDS011;8434;47.990;7.880;2022-10-31T06:54:04;7.07;;;3.10;;
16640;SDS011;8434;47.990;7.880;2022-10-31T06:56:49;4.70;;;2.70;;
16640;SDS011;8434;47.990;7.880;2022-10-31T06:59:36;6.10;;;2.70;;
16640;SDS011;8434;47.990;7.880;2022-10-31T07:02:21;6.17;;;2.80;;
16640;SDS011;8434;47.990;7.880;2022-10-31T07:05:06;5.77;;;2.70;;
16640;SDS011;8434;47.990;7.880;2022-10-31T07:07:52;5.83;;;3.00;;
16640;SDS011;8434;47.990;7.880;2022-10-31T07:10:37;5.37;;;2.80;;
16640;SDS011;8434;47.990;7.880;2022-10-31T07:13:22;5.50;;;2.87;;
16640;SDS011;8434;47.990;7.880;2022-10-31T07:16:10;5.93;;;3.30;;
16640;SDS011;8434;47.990;7.880;2022-10-31T07:18:57;5.13;;;3.20;;
16640;SDS011;8434;47.990;7.880;2022-10-31T07:21:42;5.07;;;2.73;;
16640;SDS011;8434;47.990;7.880;2022-10-31T07:24:27;4.63;;;2.63;;
16640;SDS011;8434;47.990;7.880;2022-10-31T07:27:13;6.27;;;3.10;;
16640;SDS011;8434;47.990;7.880;2022-10-31T07:29:58;7.33;;;3.17;;
16640;SDS011;8434;47.990;7.880;2022-10-31T07:32:44;4.50;;;2.77;;
16640;SDS011;8434;47.990;7.880;2022-10-31T07:35:30;4.67;;;2.67;;
16640;SDS011;8434;47.990;7.880;2022-10-31T07:38:15;6.87;;;3.33;;
16640;SDS011;8434;47.990;7.880;2022-10-31T07:41:00;7.27;;;3.40;;
16640;SDS011;8434;47.990;7.880;2022-10-31T07:43:45;6.23;;;3.63;;
16640;SDS011;8434;47.990;7.880;2022-10-31T07:46:30;6.20;;;2.93;;
16640;SDS011;8434;47.990;7.880;2022-10-31T07:49:16;6.40;;;2.53;;
16640;SDS011;8434;47.990;7.880;2022-10-31T07:52:01;7.40;;;3.63;;
16640;SDS011;8434;47.990;7.880;2022-10-31T07:54:46;5.77;;;2.83;;
16640;SDS011;8434;47.990;7.880;2022-10-31T07:57:31;7.57;;;3.30;;
16640;SDS011;8434;47.990;7.880;2022-10-31T08:00:16;7.87;;;2.93;;
16640;SDS011;8434;47.990;7.880;2022-10-31T08:03:02;7.87;;;2.80;;
16640;SDS011;8434;47.990;7.880;2022-10-31T08:05:49;4.03;;;2.90;;
16640;SDS011;8434;47.990;7.880;2022-10-31T08:08:34;4.63;;;2.40;;
16640;SDS011;8434;47.990;7.880;2022-10-31T08:11:19;5.97;;;2.90;;
16640;SDS011;8434;47.990;7.880;2022-10-31T08:14:04;9.00;;;3.17;;
16640;SDS011;8434;47.990;7.880;2022-10-31T08:16:49;8.20;;;2.97;;
16640;SDS011;8434;47.990;7.880;2022-10-31T08:19:34;5.10;;;2.37;;
16640;SDS011;8434;47.990;7.880;2022-10-31T08:22:20;4.60;;;2.87;;
16640;SDS011;8434;47.990;7.880;2022-10-31T08:25:06;8.70;;;3.10;;
16640;SDS011;8434;47.990;7.880;2022-10-31T08:27:51;4.67;;;2.93;;
16640;SDS011;8434;47.990;7.880;2022-10-31T08:30:37;5.20;;;2.60;;
16640;SDS011;8434;47.990;7.880;2022-10-31T08:33:23;7.10;;;3.03;;
16640;SDS011;8434;47.990;7.880;2022-10-31T08:36:08;8.33;;;3.67;;
16640;SDS011;8434;47.990;7.880;2022-10-31T08:38:54;7.03;;;3.20;;
16640;SDS011;8434;47.990;7.880;2022-10-31T08:41:39;6.00;;;2.70;;
16640;SDS011;8434;47.990;7.880;2022-10-31T08:44:24;7.97;;;3.30;;
16640;SDS011;8434;47.990;7.880;2022-10-31T08:47:09;7.10;;;3.07;;
16640;SDS011;8434;47.990;7.880;2022-10-31T08:49:55;9.17;;;2.60;;
16640;SDS011;8434;47.990;7.880;2022-10-31T08:52:39;9.17;;;2.97;;
16640;SDS011;8434;47.990;7.880;2022-10-31T08:55:26;16.53;;;3.33;;
16640;SDS011;8434;47.990;7.880;2022-10-31T08:58:11;5.03;;;3.17;;
16640;SDS011;8434;47.990;7.880;2022-10-31T09:00:58;7.57;;;3.60;;
16640;SDS011;8434;47.990;7.880;2022-10-31T09:03:43;5.80;;;2.90;;
16640;SDS011;8434;47.990;7.880;2022-10-31T09:06:28;5.07;;;3.20;;
16640;SDS011;8434;47.990;7.880;2022-10-31T09:09:13;7.40;;;3.00;;
16640;SDS011;8434;47.990;7.880;2022-10-31T09:11:59;5.23;;;3.17;;
16640;SDS011;8434;47.990;7.880;2022-10-31T09:14:44;7.53;;;3.43;;
16640;SDS011;8434;47.990;7.880;2022-10-31T09:17:29;6.87;;;3.33;;
16640;SDS011;8434;47.990;7.880;2022-10-31T09:20:14;6.27;;;2.77;;
16640;SDS011;8434;47.990;7.880;2022-10-31T09:23:00;7.63;;;2.80;;
16640;SDS011;8434;47.990;7.880;2022-10-31T09:25:46;7.10;;;2.90;;
16640;SDS011;8434;47.990;7.880;2022-10-31T09:28:32;4.13;;;2.60;;
16640;SDS011;8434;47.990;7.880;2022-10-31T09:31:17;6.90;;;3.13;;
16640;SDS011;8434;47.990;7.880;2022-10-31T09:34:02;11.87;;;5.13;;
16640;SDS011;8434;47.990;7.880;2022-10-31T09:36:50;7.33;;;4.10;;
16640;SDS011;8434;47.990;7.880;2022-10-31T09:39:35;6.33;;;2.97;;
16640;SDS011;8434;47.990;7.880;2022-10-31T09:42:25;11.00;;;4.43;;
16640;SDS011;8434;47.990;7.880;2022-10-31T09:45:15;7.13;;;3.27;;
16640;SDS011;8434;47.990;7.880;2022-10-31T09:48:14;10.30;;;4.30;;
16640;SDS011;8434;47.990;7.880;2022-10-31T09:51:01;7.80;;;4.10;;
16640;SDS011;8434;47.990;7.880;2022-10-31T09:53:49;5.23;;;3.33;;
16640;SDS011;8434;47.990;7.880;2022-10-31T09:56:36;7.00;;;3.70;;
16640;SDS011;8434;47.990;7.880;2022-10-31T09:59:23;7.70;;;3.50;;
16640;SDS011;8434;47.990;7.880;2022-10-31T10:02:13;6.13;;;3.20;;
16640;SDS011;8434;47.990;7.880;2022-10-31T10:05:00;4.90;;;2.77;;
16640;SDS011;8434;47.990;7.880;2022-10-31T10:07:48;7.53;;;3.30;;
16640;SDS011;8434;47.990;7.880;2022-10-31T10:10:40;12.37;;;4.77;;
16640;SDS011;8434;47.990;7.880;2022-10-31T10:13:32;7.87;;;4.50;;
16640;SDS011;8434;47.990;7.880;2022-10-31T10:16:25;11.13;;;5.50;;
16640;SDS011;8434;47.990;7.880;2022-10-31T10:19:30;11.47;;;5.37;;
16640;SDS011;8434;47.990;7.880;2022-10-31T10:22:19;9.43;;;5.53;;
16640;SDS011;8434;47.990;7.880;2022-10-31T10:25:19;9.07;;;5.27;;
16640;SDS011;8434;47.990;7.880;2022-10-31T10:28:08;11.10;;;6.43;;
16640;SDS011;8434;47.990;7.880;2022-10-31T10:30:57;10.33;;;5.23;;
16640;SDS011;8434;47.990;7.880;2022-10-31T10:33:47;8.47;;;5.17;;
16640;SDS011;8434;47.990;7.880;2022-10-31T10:36:38;12.87;;;5.70;;
16640;SDS011;8434;47.990;7.880;2022-10-31T10:39:25;12.43;;;5.27;;
16640;SDS011;8434;47.990;7.880;2022-10-31T10:42:13;9.50;;;5.93;;
16640;SDS011;8434;47.990;7.880;2022-10-31T10:45:17;10.80;;;5.47;;
16640;SDS011;8434;47.990;7.880;2022-10-31T10:48:23;12.63;;;5.80;;
16640;SDS011;8434;47.990;7.880;2022-10-31T10:51:21;11.50;;;5.80;;
16640;SDS011;8434;47.990;7.880;2022-10-31T10:57:10;9.63;;;5.30;;
16640;SDS011;8434;47.990;7.880;2022-10-31T10:59:57;10.50;;;5.40;;
16640;SDS011;8434;47.990;7.880;2022-10-31T11:02:44;10.43;;;5.33;;
16640;SDS011;8434;47.990;7.880;2022-10-31T11:05:33;8.50;;;5.23;;
16640;SDS011;8434;47.990;7.880;2022-10-31T11:08:25;9.00;;;5.10;;
16640;SDS011;8434;47.990;7.880;2022-10-31T11:11:11;10.30;;;5.57;;
16640;SDS011;8434;47.990;7.880;2022-10-31T11:14:05;11.77;;;5.63;;
16640;SDS011;8434;47.990;7.880;2022-10-31T11:16:51;13.77;;;6.53;;
16640;SDS011;8434;47.990;7.880;2022-10-31T11:19:38;7.83;;;4.97;;
16640;SDS011;8434;47.990;7.880;2022-10-31T11:22:23;8.23;;;5.40;;
16640;SDS011;8434;47.990;7.880;2022-10-31T11:25:19;8.30;;;5.63;;
16640;SDS011;8434;47.990;7.880;2022-10-31T11:28:05;8.47;;;5.07;;
16640;SDS011;8434;47.990;7.880;2022-10-31T11:30:54;10.23;;;5.23;;
16640;SDS011;8434;47.990;7.880;2022-10-31T11:33:44;10.67;;;5.03;;
16640;SDS011;8434;47.990;7.880;2022-10-31T11:36:30;7.70;;;4.87;;
16640;SDS011;8434;47.990;7.880;2022-10-31T11:39:17;9.97;;;4.27;;
16640;SDS011;8434;47.990;7.880;2022-10-31T11:42:03;6.40;;;4.13;;
16640;SDS011;8434;47.990;7.880;2022-10-31T11:44:48;8.07;;;4.27;;
16640;SDS011;8434;47.990;7.880;2022-10-31T11:47:34;6.73;;;4.27;;
16640;SDS011;8434;47.990;7.880;2022-10-31T11:50:21;10.70;;;4.53;;
16640;SDS011;8434;47.990;7.880;2022-10-31T11:53:11;6.97;;;3.97;;
16640;SDS011;8434;47.990;7.880;2022-10-31T11:56:01;8.13;;;3.67;;
16640;SDS011;8434;47.990;7.880;2022-10-31T11:58:54;8.83;;;3.73;;
16640;SDS011;8434;47.990;7.880;2022-10-31T12:01:40;8.50;;;4.90;;
16640;SDS011;8434;47.990;7.880;2022-10-31T12:04:34;12.27;;;5.17;;
16640;SDS011;8434;47.990;7.880;2022-10-31T12:07:21;7.90;;;4.40;;
16640;SDS011;8434;47.990;7.880;2022-10-31T12:10:09;7.80;;;4.20;;
16640;SDS011;8434;47.990;7.880;2022-10-31T12:12:57;8.23;;;4.20;;
16640;SDS011;8434;47.990;7.880;2022-10-31T12:15:46;8.73;;;4.63;;
16640;SDS011;8434;47.990;7.880;2022-10-31T12:18:44;6.83;;;4.10;;
16640;SDS011;8434;47.990;7.880;2022-10-31T12:21:46;8.57;;;4.70;;
16640;SDS011;8434;47.990;7.880;2022-10-31T12:24:38;8.50;;;3.87;;
16640;SDS011;8434;47.990;7.880;2022-10-31T12:27:29;7.00;;;3.30;;
16640;SDS011;8434;47.990;7.880;2022-10-31T12:30:19;7.07;;;2.93;;
16640;SDS011;8434;47.990;7.880;2022-10-31T12:33:12;6.83;;;2.80;;
16640;SDS011;8434;47.990;7.880;2022-10-31T12:36:05;5.83;;;2.90;;
16640;SDS011;8434;47.990;7.880;2022-10-31T12:38:58;9.40;;;3.07;;
16640;SDS011;8434;47.990;7.880;2022-10-31T12:41:46;6.37;;;2.97;;
16640;SDS011;8434;47.990;7.880;2022-10-31T12:44:42;12.27;;;4.13;;
16640;SDS011;8434;47.990;7.880;2022-10-31T12:47:37;10.97;;;4.53;;
16640;SDS011;8434;47.990;7.880;2022-10-31T12:50:27;11.03;;;4.13;;
16640;SDS011;8434;47.990;7.880;2022-10-31T12:53:18;8.00;;;3.60;;
16640;SDS011;8434;47.990;7.880;2022-10-31T12:56:09;8.23;;;3.50;;
16640;SDS011;8434;47.990;7.880;2022-10-31T12:58:59;8.17;;;3.57;;
16640;SDS011;8434;47.990;7.880;2022-10-31T13:01:47;6.87;;;4.10;;
16640;SDS011;8434;47.990;7.880;2022-10-31T13:04:39;9.30;;;5.37;;
16640;SDS011;8434;47.990;7.880;2022-10-31T13:07:27;11.10;;;4.23;;
16640;SDS011;8434;47.990;7.880;2022-10-31T13:10:15;6.23;;;3.90;;
16640;SDS011;8434;47.990;7.880;2022-10-31T13:13:05;8.63;;;4.47;;
16640;SDS011;8434;47.990;7.880;2022-10-31T13:15:51;11.20;;;4.93;;
16640;SDS011;8434;47.990;7.880;2022-10-31T13:18:38;12.57;;;4.23;;
16640;SDS011;8434;47.990;7.880;2022-10-31T13:21:25;13.00;;;4.27;;
16640;SDS011;8434;47.990;7.880;2022-10-31T13:24:12;9.03;;;4.53;;
16640;SDS011;8434;47.990;7.880;2022-10-31T13:26:58;7.67;;;4.13;;
16640;SDS011;8434;47.990;7.880;2022-10-31T13:29:49;9.57;;;4.60;;
16640;SDS011;8434;47.990;7.880;2022-10-31T13:32:38;13.77;;;4.53;;
16640;SDS011;8434;47.990;7.880;2022-10-31T13:35:26;7.83;;;3.90;;
16640;SDS011;8434;47.990;7.880;2022-10-31T13:38:16;7.80;;;3.90;;
16640;SDS011;8434;47.990;7.880;2022-10-31T13:41:04;9.03;;;4.90;;
16640;SDS011;8434;47.990;7.880;2022-10-31T13:43:56;9.10;;;4.47;;
16640;SDS011;8434;47.990;7.880;2022-10-31T13:46:45;7.93;;;4.30;;
16640;SDS011;8434;47.990;7.880;2022-10-31T13:49:37;8.03;;;4.40;;
16640;SDS011;8434;47.990;7.880;2022-10-31T13:52:23;7.37;;;4.23;;
16640;SDS011;8434;47.990;7.880;2022-10-31T13:55:33;6.40;;;3.90;;
16640;SDS011;8434;47.990;7.880;2022-10-31T13:58:20;8.37;;;3.93;;
16640;SDS011;8434;47.990;7.880;2022-10-31T14:01:14;7.83;;;4.77;;
16640;SDS011;8434;47.990;7.880;2022-10-31T14:04:03;8.10;;;4.53;;
16640;SDS011;8434;47.990;7.880;2022-10-31T14:06:54;10.07;;;4.73;;
16640;SDS011;8434;47.990;7.880;2022-10-31T14:09:48;7.97;;;4.43;;
16640;SDS011;8434;47.990;7.880;2022-10-31T14:12:36;9.80;;;4.03;;
16640;SDS011;8434;47.990;7.880;2022-10-31T14:15:22;8.07;;;5.13;;
16640;SDS011;8434;47.990;7.880;2022-10-31T14:18:17;7.50;;;5.03;;
16640;SDS011;8434;47.990;7.880;2022-10-31T14:21:14;10.63;;;4.60;;
16640;SDS011;8434;47.990;7.880;2022-10-31T14:24:00;10.13;;;4.67;;
16640;SDS011;8434;47.990;7.880;2022-10-31T14:26:51;9.47;;;4.70;;
16640;SDS011;8434;47.990;7.880;2022-10-31T14:29:36;7.97;;;4.40;;
16640;SDS011;8434;47.990;7.880;2022-10-31T14:32:22;11.30;;;4.93;;
16640;SDS011;8434;47.990;7.880;2022-10-31T14:35:08;9.07;;;4.30;;
16640;SDS011;8434;47.990;7.880;2022-10-31T14:38:11;10.93;;;4.20;;
16640;SDS011;8434;47.990;7.880;2022-10-31T14:41:11;9.27;;;4.60;;
16640;SDS011;8434;47.990;7.880;2022-10-31T14:47:06;9.50;;;4.43;;
16640;SDS011;8434;47.990;7.880;2022-10-31T14:50:03;9.07;;;4.23;;
16640;SDS011;8434;47.990;7.880;2022-10-31T14:52:50;10.40;;;5.33;;
16640;SDS011;8434;47.990;7.880;2022-10-31T14:55:40;10.20;;;4.70;;
16640;SDS011;8434;47.990;7.880;2022-10-31T14:58:31;9.60;;;4.63;;
16640;SDS011;8434;47.990;7.880;2022-10-31T15:01:19;9.67;;;4.50;;
16640;SDS011;8434;47.990;7.880;2022-10-31T15:04:07;11.17;;;5.67;;
16640;SDS011;8434;47.990;7.880;2022-10-31T15:06:54;12.60;;;5.10;;
16640;SDS011;8434;47.990;7.880;2022-10-31T15:09:42;11.97;;;6.07;;
16640;SDS011;8434;47.990;7.880;2022-10-31T15:12:28;9.40;;;5.30;;
16640;SDS011;8434;47.990;7.880;2022-10-31T15:15:14;11.53;;;6.10;;
16640;SDS011;8434;47.990;7.880;2022-10-31T15:18:03;11.43;;;5.30;;
16640;SDS011;8434;47.990;7.880;2022-10-31T15:20:49;9.93;;;5.57;;
16640;SDS011;8434;47.990;7.880;2022-10-31T15:23:34;9.27;;;5.80;;
16640;SDS011;8434;47.990;7.880;2022-10-31T15:26:20;10.23;;;6.37;;
16640;SDS011;8434;47.990;7.880;2022-10-31T15:29:11;9.07;;;5.70;;
16640;SDS011;8434;47.990;7.880;2022-10-31T15:31:57;10.83;;;6.03;;
16640;SDS011;8434;47.990;7.880;2022-10-31T15:34:43;10.67;;;5.87;;
16640;SDS011;8434;47.990;7.880;2022-10-31T15:37:28;13.43;;;5.83;;
16640;SDS011;8434;47.990;7.880;2022-10-31T15:40:14;9.73;;;5.73;;
16640;SDS011;8434;47.990;7.880;2022-10-31T15:43:00;8.40;;;6.20;;
16640;SDS011;8434;47.990;7.880;2022-10-31T15:45:47;8.67;;;5.70;;
16640;SDS011;8434;47.990;7.880;2022-10-31T15:48:32;10.63;;;6.10;;
16640;SDS011;8434;47.990;7.880;2022-10-31T15:51:24;10.13;;;6.60;;
16640;SDS011;8434;47.990;7.880;2022-10-31T15:54:10;7.73;;;6.37;;
16640;SDS011;8434;47.990;7.880;2022-10-31T15:56:57;10.83;;;6.03;;
16640;SDS011;8434;47.990;7.880;2022-10-31T15:59:42;9.97;;;6.27;;
16640;SDS011;8434;47.990;7.880;2022-10-31T16:02:30;8.40;;;5.90;;
16640;SDS011;8434;47.990;7.880;2022-10-31T16:05:16;10.03;;;5.93;;
16640;SDS011;8434;47.990;7.880;2022-10-31T16:08:01;10.63;;;5.63;;
16640;SDS011;8434;47.990;7.880;2022-10-31T16:10:46;11.77;;;6.17;;
16640;SDS011;8434;47.990;7.880;2022-10-31T16:13:32;10.37;;;6.13;;
16640;SDS011;8434;47.990;7.880;2022-10-31T16:16:18;10.67;;;6.10;;
16640;SDS011;8434;47.990;7.880;2022-10-31T16:19:05;10.27;;;6.23;;
16640;SDS011;8434;47.990;7.880;2022-10-31T16:22:01;11.97;;;6.67;;
16640;SDS011;8434;47.990;7.880;2022-10-31T16:24:48;12.23;;;6.80;;
16640;SDS011;8434;47.990;7.880;2022-10-31T16:27:34;14.20;;;6.87;;
16640;SDS011;8434;47.990;7.880;2022-10-31T16:30:29;13.50;;;7.17;;
16640;SDS011;8434;47.990;7.880;2022-10-31T16:33:22;12.70;;;8.17;;
16640;SDS011;8434;47.990;7.880;2022-10-31T16:39:09;8.53;;;6.80;;
16640;SDS011;8434;47.990;7.880;2022-10-31T16:41:54;12.47;;;7.53;;
16640;SDS011;8434;47.990;7.880;2022-10-31T16:44:40;14.23;;;7.93;;
16640;SDS011;8434;47.990;7.880;2022-10-31T16:47:28;16.90;;;8.60;;
16640;SDS011;8434;47.990;7.880;2022-10-31T16:50:14;13.07;;;7.93;;
16640;SDS011;8434;47.990;7.880;2022-10-31T16:53:00;14.53;;;7.47;;
16640;SDS011;8434;47.990;7.880;2022-10-31T16:55:46;11.63;;;7.47;;
16640;SDS011;8434;47.990;7.880;2022-10-31T16:58:34;11.47;;;7.20;;
16640;SDS011;8434;47.990;7.880;2022-10-31T17:01:19;13.70;;;7.87;;
16640;SDS011;8434;47.990;7.880;2022-10-31T17:04:04;12.20;;;7.93;;
16640;SDS011;8434;47.990;7.880;2022-10-31T17:06:49;11.43;;;7.27;;
16640;SDS011;8434;47.990;7.880;2022-10-31T17:09:34;12.27;;;7.83;;
16640;SDS011;8434;47.990;7.880;2022-10-31T17:12:20;11.37;;;7.73;;